Time;durP1;ratioP1;P1;durP2;ratioP2;P2;SDS_P1;SDS_P2;PMS_P1;PMS_P2;Temp;Humidity;BMP_temperature;BMP_pressure;BME280_temperature;BME280_humidity;BME280_pressure;Samples;Min_cycle;Max_cycle;Signal;HPM_P1;HPM_P2
2023/09/01 00:00:59;;;;;;;0.40;0.20;;;;;;;15.97;100.00;99945.38;5012420;28;20452;-52
2023/09/01 00:03:26;;;;;;;0.40;0.20;;;;;;;16.10;100.00;99940.19;5016290;28;20448;-52
2023/09/01 00:05:53;;;;;;;0.40;0.20;;;;;;;16.00;100.00;99942.53;5016084;28;20973;-52
2023/09/01 00:08:19;;;;;;;0.40;0.20;;;;;;;15.99;100.00;99944.34;5016327;28;20448;-52
2023/09/01 00:10:46;;;;;;;0.40;0.20;;;;;;;15.95;100.00;99941.94;5016069;28;20534;-52
2023/09/01 00:13:12;;;;;;;0.40;0.20;;;;;;;15.87;100.00;99945.03;5015139;28;20484;-52
2023/09/01 00:15:39;;;;;;;0.40;0.20;;;;;;;15.93;100.00;99949.19;5016047;28;20580;-52
2023/09/01 00:18:05;;;;;;;0.40;0.20;;;;;;;15.92;100.00;99945.66;5016181;28;20453;-52
2023/09/01 00:20:34;;;;;;;0.40;0.20;;;;;;;15.89;100.00;99948.47;5012966;28;20456;-52
2023/09/01 00:23:03;;;;;;;0.40;0.20;;;;;;;16.03;100.00;99941.47;5008953;28;20480;-52
2023/09/01 00:25:31;;;;;;;0.40;0.20;;;;;;;15.91;100.00;99932.34;5015296;28;20471;-51
2023/09/01 00:27:57;;;;;;;0.40;0.20;;;;;;;16.18;100.00;99943.31;5016413;28;20852;-52
2023/09/01 00:30:29;;;;;;;0.97;0.97;;;;;;;16.23;100.00;99946.59;5016067;28;20427;-52
2023/09/01 00:32:56;;;;;;;0.40;0.20;;;;;;;16.20;100.00;99938.72;5015778;28;20792;-52
2023/09/01 00:35:22;;;;;;;0.40;0.20;;;;;;;16.12;100.00;99935.59;5011450;28;20992;-52
2023/09/01 00:37:50;;;;;;;0.40;0.20;;;;;;;15.97;100.00;99924.81;5015444;28;20518;-52
2023/09/01 00:40:16;;;;;;;0.40;0.20;;;;;;;15.98;100.00;99939.06;4990592;28;20456;-52
2023/09/01 00:42:43;;;;;;;0.40;0.20;;;;;;;16.04;100.00;99938.75;5015899;28;20452;-52
2023/09/01 00:45:09;;;;;;;0.40;0.20;;;;;;;16.02;100.00;99932.56;5003023;28;20459;-51
2023/09/01 00:47:36;;;;;;;0.40;0.20;;;;;;;15.94;100.00;99937.53;5015594;28;20937;-51
2023/09/01 00:50:07;;;;;;;0.40;0.20;;;;;;;15.88;100.00;99935.16;5015689;28;20419;-51
2023/09/01 00:52:35;;;;;;;0.40;0.20;;;;;;;15.84;100.00;99921.09;5012996;28;20449;-52
2023/09/01 00:55:05;;;;;;;0.40;0.20;;;;;;;15.75;100.00;99931.44;5005124;28;20943;-52
2023/09/01 00:57:32;;;;;;;0.40;0.20;;;;;;;15.88;100.00;99921.75;5010746;28;20488;-51
2023/09/01 00:59:58;;;;;;;0.40;0.20;;;;;;;15.95;100.00;99923.16;5015492;28;20452;-52
2023/09/01 01:02:26;;;;;;;0.40;0.20;;;;;;;15.94;100.00;99916.06;5015250;28;20483;-51
2023/09/01 01:04:54;;;;;;;0.40;0.20;;;;;;;15.95;100.00;99909.75;5015252;28;20452;-52
2023/09/01 01:07:26;;;;;;;0.40;0.20;;;;;;;15.93;100.00;99909.84;5015161;28;20871;-52
2023/09/01 01:10:16;;;;;;;0.40;0.20;;;;;;;15.98;100.00;99910.44;5015035;28;20444;-52
2023/09/01 01:12:59;;;;;;;0.50;0.30;;;;;;;16.00;100.00;99903.16;4989517;28;20445;-52
2023/09/01 01:15:27;;;;;;;0.40;0.20;;;;;;;16.07;100.00;99902.84;5014882;28;21024;-52
2023/09/01 01:17:56;;;;;;;0.40;0.20;;;;;;;16.15;100.00;99900.56;5015340;28;20452;-52
2023/09/01 01:20:32;;;;;;;0.40;0.20;;;;;;;16.24;100.00;99902.72;5014874;28;20459;-52
2023/09/01 01:23:17;;;;;;;0.40;0.20;;;;;;;16.20;100.00;99907.41;5002151;28;20899;-51
2023/09/01 01:25:52;;;;;;;0.40;0.20;;;;;;;16.29;100.00;99898.81;4991696;28;20465;-52
2023/09/01 01:28:20;;;;;;;0.40;0.20;;;;;;;16.27;100.00;99902.53;5014920;28;20458;-52
2023/09/01 01:30:47;;;;;;;0.40;0.20;;;;;;;16.33;100.00;99904.88;5014760;28;20812;-52
2023/09/01 01:33:27;;;;;;;0.40;0.20;;;;;;;16.18;100.00;99905.78;5014995;28;20454;-52
2023/09/01 01:36:03;;;;;;;0.40;0.20;;;;;;;16.16;100.00;99903.16;5010365;28;20856;-52
2023/09/01 01:38:31;;;;;;;0.40;0.20;;;;;;;16.20;100.00;99899.38;5014250;28;20531;-52
2023/09/01 01:41:18;;;;;;;0.40;0.20;;;;;;;16.27;100.00;99899.84;5014605;28;20462;-52
2023/09/01 01:43:47;;;;;;;0.40;0.20;;;;;;;16.36;100.00;99901.16;4992897;28;20528;-51
2023/09/01 01:46:15;;;;;;;0.40;0.20;;;;;;;16.43;100.00;99899.81;5014298;28;20475;-52
2023/09/01 01:48:41;;;;;;;0.40;0.20;;;;;;;16.38;100.00;99894.72;5014433;28;20456;-52
2023/09/01 01:51:07;;;;;;;0.40;0.20;;;;;;;16.24;100.00;99895.53;5014440;28;20543;-52
2023/09/01 01:53:35;;;;;;;0.40;0.20;;;;;;;16.21;100.00;99902.91;5012631;28;20829;-52
2023/09/01 01:56:03;;;;;;;0.40;0.20;;;;;;;16.19;100.00;99897.63;5002483;28;20488;-52
2023/09/01 01:58:30;;;;;;;0.40;0.20;;;;;;;16.20;100.00;99894.00;5004858;28;20451;-52
2023/09/01 02:00:57;;;;;;;0.40;0.20;;;;;;;16.24;100.00;99898.22;5014160;28;20491;-52
2023/09/01 02:03:23;;;;;;;0.40;0.20;;;;;;;16.33;100.00;99904.03;5014018;28;20934;-52
2023/09/01 02:05:50;;;;;;;0.40;0.20;;;;;;;16.46;100.00;99903.22;5014135;28;20547;-52
2023/09/01 02:08:19;;;;;;;0.40;0.20;;;;;;;16.46;100.00;99896.97;5055678;23;20498;-48
2023/09/01 02:10:48;;;;;;;0.40;0.20;;;;;;;16.42;100.00;99901.63;5053596;28;21001;-48
2023/09/01 02:13:14;;;;;;;0.40;0.20;;;;;;;16.37;100.00;99902.88;5053796;28;20493;-48
2023/09/01 02:15:50;;;;;;;0.40;0.20;;;;;;;16.49;100.00;99894.97;5053423;28;20947;-49
2023/09/01 02:18:17;;;;;;;0.40;0.20;;;;;;;16.35;100.00;99894.91;5040506;28;20459;-47
2023/09/01 02:20:43;;;;;;;0.40;0.20;;;;;;;16.41;100.00;99891.88;5027055;28;20451;-48
2023/09/01 02:23:10;;;;;;;0.40;0.20;;;;;;;16.35;100.00;99891.38;5040264;28;20475;-47
2023/09/01 02:25:37;;;;;;;0.40;0.20;;;;;;;16.30;100.00;99903.22;5046241;28;20811;-48
2023/09/01 02:28:04;;;;;;;0.50;0.47;;;;;;;16.45;100.00;99897.94;5046783;28;20467;-47
2023/09/01 02:30:30;;;;;;;0.40;0.20;;;;;;;16.45;100.00;99898.81;5040484;28;20536;-48
2023/09/01 02:32:56;;;;;;;0.40;0.20;;;;;;;16.44;100.00;99897.03;5040116;28;20462;-48
2023/09/01 02:35:23;;;;;;;0.40;0.20;;;;;;;16.51;100.00;99900.25;5040978;28;20443;-47
2023/09/01 02:37:49;;;;;;;0.40;0.20;;;;;;;16.40;100.00;99891.97;5046288;28;20497;-48
2023/09/01 02:40:16;;;;;;;0.40;0.20;;;;;;;16.40;100.00;99900.88;5039215;28;20993;-48
2023/09/01 02:42:42;;;;;;;0.40;0.20;;;;;;;16.28;100.00;99891.72;5039575;28;20458;-48
2023/09/01 02:45:13;;;;;;;0.40;0.20;;;;;;;16.49;100.00;99889.59;5045581;28;20967;-47
2023/09/01 02:47:40;;;;;;;0.40;0.20;;;;;;;16.64;100.00;99906.59;5046451;28;20459;-47
2023/09/01 02:50:07;;;;;;;0.40;0.20;;;;;;;16.64;100.00;99905.75;5041967;28;20541;-48
2023/09/01 02:52:34;;;;;;;0.40;0.20;;;;;;;16.64;100.00;99898.56;5039670;28;20479;-49
2023/09/01 02:55:00;;;;;;;0.40;0.20;;;;;;;16.56;100.00;99900.81;5044079;28;20454;-47
2023/09/01 02:57:27;;;;;;;0.40;0.20;;;;;;;16.61;100.00;99903.25;5034423;28;20502;-47
2023/09/01 02:59:53;;;;;;;0.40;0.20;;;;;;;16.58;100.00;99901.59;5044460;28;20461;-48
2023/09/01 03:02:20;;;;;;;0.40;0.20;;;;;;;16.67;100.00;99898.41;5046167;28;20482;-49
2023/09/01 03:04:48;;;;;;;0.40;0.20;;;;;;;16.63;100.00;99902.19;5041909;28;20446;-48
2023/09/01 03:07:15;;;;;;;0.40;0.20;;;;;;;16.62;100.00;99887.06;5039145;28;20972;-48
2023/09/01 03:09:42;;;;;;;0.40;0.20;;;;;;;16.75;100.00;99896.13;5043045;28;20505;-48
2023/09/01 03:12:09;;;;;;;0.40;0.20;;;;;;;16.75;100.00;99895.28;5045974;28;20824;-48
2023/09/01 03:14:35;;;;;;;0.40;0.20;;;;;;;16.66;100.00;99890.41;5042299;28;20453;-47
2023/09/01 03:17:04;;;;;;;0.40;0.20;;;;;;;16.71;100.00;99885.66;5038968;28;20915;-47
2023/09/01 03:19:32;;;;;;;0.40;0.20;;;;;;;16.65;100.00;99883.31;5042744;28;20960;-48
2023/09/01 03:21:58;;;;;;;0.40;0.20;;;;;;;16.56;100.00;99890.09;5045979;28;20788;-47
2023/09/01 03:24:26;;;;;;;0.40;0.20;;;;;;;16.59;100.00;99889.94;5042152;28;20457;-48
2023/09/01 03:26:52;;;;;;;0.40;0.20;;;;;;;16.66;100.00;99887.72;5038804;28;20463;-47
2023/09/01 03:29:19;;;;;;;0.40;0.20;;;;;;;16.68;100.00;99888.53;5042995;28;20451;-47
2023/09/01 03:31:45;;;;;;;0.40;0.20;;;;;;;16.64;100.00;99879.78;5045774;28;20422;-47
2023/09/01 03:34:12;;;;;;;0.40;0.20;;;;;;;16.83;100.00;99885.78;5040854;28;20807;-48
2023/09/01 03:36:38;;;;;;;0.40;0.20;;;;;;;16.74;100.00;99886.34;5035822;28;20496;-48
2023/09/01 03:39:07;;;;;;;0.40;0.20;;;;;;;16.74;100.00;99888.19;5041440;28;20466;-48
2023/09/01 03:41:37;;;;;;;0.40;0.20;;;;;;;16.70;100.00;99887.47;5045682;28;20455;-48
2023/09/01 03:44:03;;;;;;;0.40;0.20;;;;;;;16.74;100.00;99890.84;5043935;28;20999;-48
2023/09/01 03:46:30;;;;;;;0.40;0.20;;;;;;;16.75;100.00;99885.41;5038663;28;20457;-48
2023/09/01 03:48:56;;;;;;;0.40;0.20;;;;;;;16.72;100.00;99893.63;5040448;28;20838;-48
2023/09/01 03:51:23;;;;;;;0.40;0.20;;;;;;;16.65;100.00;99892.22;5045356;28;20542;-48
2023/09/01 03:53:49;;;;;;;0.40;0.20;;;;;;;16.65;100.00;99892.22;5043982;28;20455;-47
2023/09/01 03:56:20;;;;;;;0.40;0.20;;;;;;;16.72;100.00;99884.69;5033108;28;20534;-50
2023/09/01 03:58:46;;;;;;;0.40;0.20;;;;;;;16.63;100.00;99887.91;5044849;28;20475;-49
2023/09/01 04:01:13;;;;;;;0.40;0.20;;;;;;;16.49;100.00;99891.44;5038695;28;20529;-47
2023/09/01 04:03:41;;;;;;;0.40;0.20;;;;;;;16.60;100.00;99891.66;5039240;28;20455;-48
2023/09/01 04:06:08;;;;;;;0.40;0.20;;;;;;;16.57;100.00;99895.34;5045601;28;20422;-48
2023/09/01 04:08:35;;;;;;;1.90;0.83;;;;;;;16.66;100.00;99891.28;5045074;28;20474;-48
2023/09/01 04:11:03;;;;;;;0.40;0.20;;;;;;;16.48;100.00;99895.06;5045351;28;20454;-48
2023/09/01 04:13:33;;;;;;;0.40;0.20;;;;;;;16.54;100.00;99887.50;5045478;28;20530;-49
2023/09/01 04:16:00;;;;;;;0.40;0.20;;;;;;;16.41;100.00;99880.28;5039890;28;20476;-47
2023/09/01 04:18:27;;;;;;;0.40;0.20;;;;;;;16.52;100.00;99883.19;5038459;28;20491;-47
2023/09/01 04:20:54;;;;;;;0.40;0.20;;;;;;;16.66;100.00;99891.28;5043949;28;20474;-47
2023/09/01 04:23:21;;;;;;;0.40;0.30;;;;;;;16.73;100.00;99892.69;5038002;28;20447;-47
2023/09/01 04:25:48;;;;;;;0.40;0.20;;;;;;;16.71;100.00;99893.69;5043882;28;20447;-47
2023/09/01 04:28:16;;;;;;;0.40;0.20;;;;;;;16.75;100.00;99896.13;5044556;28;20491;-48
2023/09/01 04:30:43;;;;;;;0.40;0.20;;;;;;;16.83;100.00;99892.97;5040503;28;20509;-49
2023/09/01 04:33:10;;;;;;;0.40;0.20;;;;;;;16.88;100.00;99902.50;5037970;28;20811;-47
2023/09/01 04:35:36;;;;;;;0.40;0.20;;;;;;;16.88;100.00;99905.16;5038794;28;20426;-47
2023/09/01 04:38:03;;;;;;;0.40;0.20;;;;;;;16.80;100.00;99898.53;5045164;28;20469;-47
2023/09/01 04:40:30;;;;;;;0.40;0.20;;;;;;;16.82;100.00;99901.97;5040719;28;20497;-49
2023/09/01 04:42:56;;;;;;;0.40;0.27;;;;;;;16.84;100.00;99902.75;5038114;28;20512;-47
2023/09/01 04:45:23;;;;;;;0.40;0.20;;;;;;;16.76;100.00;99905.91;5042645;28;20974;-48
2023/09/01 04:47:51;;;;;;;0.40;0.20;;;;;;;16.73;100.00;99905.25;5045877;28;21010;-47
2023/09/01 04:50:18;;;;;;;0.40;0.20;;;;;;;16.67;100.00;99909.13;5044697;28;20425;-47
2023/09/01 04:52:44;;;;;;;0.40;0.30;;;;;;;16.81;100.00;99917.22;5041678;28;20460;-48
2023/09/01 04:55:11;;;;;;;0.40;0.30;;;;;;;16.85;100.00;99918.75;5045577;28;20460;-48
2023/09/01 04:57:37;;;;;;;0.40;0.20;;;;;;;16.80;100.00;99915.50;5036609;28;20518;-48
2023/09/01 05:00:15;;;;;;;0.40;0.20;;;;;;;16.72;100.00;99916.91;5044247;28;20436;-47
2023/09/01 05:02:46;;;;;;;0.40;0.20;;;;;;;17.10;100.00;99928.00;5048532;28;20451;-48
2023/09/01 05:05:13;;;;;;;0.40;0.20;;;;;;;16.80;100.00;99920.00;5046518;28;20983;-47
2023/09/01 05:07:40;;;;;;;0.40;0.20;;;;;;;16.72;100.00;99923.16;5041435;28;20488;-47
2023/09/01 05:10:07;;;;;;;0.40;0.20;;;;;;;16.79;100.00;99918.28;5042772;28;20840;-47
2023/09/01 05:12:33;;;;;;;0.40;0.20;;;;;;;16.75;100.00;99922.13;5048045;28;20460;-49
2023/09/01 05:15:00;;;;;;;0.40;0.20;;;;;;;16.54;100.00;99910.78;5047031;28;20468;-47
2023/09/01 05:17:28;;;;;;;0.40;0.20;;;;;;;16.60;100.00;99923.84;5041028;28;20856;-46
2023/09/01 05:19:54;;;;;;;0.40;0.20;;;;;;;16.82;100.00;99936.88;5042085;28;20870;-47
2023/09/01 05:22:21;;;;;;;0.40;0.20;;;;;;;16.69;100.00;99938.56;5048200;28;20473;-47
2023/09/01 05:24:49;;;;;;;0.40;0.20;;;;;;;16.72;100.00;99941.97;5047155;28;20459;-47
2023/09/01 05:27:19;;;;;;;0.40;0.20;;;;;;;16.65;100.00;99937.84;5040830;28;20448;-47
2023/09/01 05:29:47;;;;;;;0.40;0.20;;;;;;;16.51;100.00;99917.19;5027752;28;20472;-47
2023/09/01 05:32:15;;;;;;;0.40;0.20;;;;;;;16.45;100.00;99908.66;5041743;28;20926;-48
2023/09/01 05:34:42;;;;;;;0.40;0.20;;;;;;;16.26;100.00;99899.00;5040229;28;20800;-46
2023/09/01 05:37:11;;;;;;;0.40;0.20;;;;;;;16.44;100.00;99928.38;5042439;28;20497;-48
2023/09/01 05:39:39;;;;;;;0.40;0.20;;;;;;;16.61;100.00;99922.03;5040665;28;20448;-47
2023/09/01 05:42:09;;;;;;;0.40;0.20;;;;;;;16.82;100.00;99934.19;5045185;28;20423;-48
2023/09/01 05:44:37;;;;;;;0.40;0.20;;;;;;;16.72;100.00;99933.00;5047261;28;20459;-47
2023/09/01 05:47:04;;;;;;;0.40;0.20;;;;;;;16.69;100.00;99950.16;5044131;28;20476;-50
2023/09/01 05:49:31;;;;;;;0.40;0.20;;;;;;;16.75;100.00;99944.44;5040922;28;20446;-48
2023/09/01 05:51:59;;;;;;;0.40;0.20;;;;;;;16.63;100.00;99939.78;5044313;28;20422;-47
2023/09/01 05:54:26;;;;;;;0.40;0.20;;;;;;;16.57;100.00;99932.94;5047397;28;20886;-47
2023/09/01 05:56:53;;;;;;;0.40;0.20;;;;;;;16.36;100.00;99926.16;5033609;28;20972;-46
2023/09/01 05:59:20;;;;;;;0.40;0.20;;;;;;;16.42;100.00;99920.41;5047167;28;20444;-48
2023/09/01 06:01:47;;;;;;;0.40;0.20;;;;;;;16.52;100.00;99910.03;5045270;28;20447;-47
2023/09/01 06:04:14;;;;;;;0.40;0.20;;;;;;;16.35;100.00;99919.06;5040571;28;20446;-47
2023/09/01 06:06:40;;;;;;;0.40;0.20;;;;;;;16.67;100.00;99917.19;5041915;28;20486;-49
2023/09/01 06:09:07;;;;;;;0.40;0.20;;;;;;;16.70;100.00;99921.50;5046811;28;20448;-47
2023/09/01 06:11:35;;;;;;;0.40;0.20;;;;;;;16.75;100.00;99914.91;5045728;28;20482;-48
2023/09/01 06:14:03;;;;;;;0.40;0.20;;;;;;;16.66;100.00;99922.63;5040436;28;20493;-47
2023/09/01 06:16:29;;;;;;;0.40;0.20;;;;;;;16.86;100.00;99919.66;5041032;28;21070;-49
2023/09/01 06:18:59;;;;;;;0.40;0.20;;;;;;;16.82;100.00;99924.31;5046829;28;20488;-48
2023/09/01 06:21:25;;;;;;;0.40;0.20;;;;;;;16.97;100.00;99921.66;5046602;28;20429;-48
2023/09/01 06:23:52;;;;;;;0.40;0.20;;;;;;;16.79;100.00;99927.19;5038302;28;20453;-48
2023/09/01 06:26:18;;;;;;;0.40;0.20;;;;;;;16.80;100.00;99923.56;5040334;28;20452;-48
2023/09/01 06:28:46;;;;;;;0.40;0.20;;;;;;;16.85;100.00;99925.94;5046926;28;20444;-47
2023/09/01 06:31:13;;;;;;;0.40;0.20;;;;;;;16.85;100.00;99918.75;5047026;28;20447;-47
2023/09/01 06:33:43;;;;;;;0.40;0.20;;;;;;;16.99;100.00;99928.66;5046762;28;20449;-48
2023/09/01 06:36:12;;;;;;;0.40;0.20;;;;;;;17.19;100.00;99919.41;5033628;28;20523;-48
2023/09/01 06:38:42;;;;;;;0.40;0.20;;;;;;;17.09;100.00;99932.53;5027721;28;20570;-49
2023/09/01 06:41:09;;;;;;;0.40;0.20;;;;;;;17.22;100.00;99926.41;5039310;28;20539;-49
2023/09/01 06:43:36;;;;;;;0.40;0.20;;;;;;;17.35;100.00;99933.59;5046063;28;20452;-47
2023/09/01 06:46:02;;;;;;;0.40;0.20;;;;;;;17.27;100.00;99935.03;5046456;28;20453;-48
2023/09/01 06:48:30;;;;;;;0.40;0.20;;;;;;;17.30;100.00;99926.81;5041091;28;20467;-48
2023/09/01 06:51:01;;;;;;;0.40;0.20;;;;;;;17.39;100.00;99934.28;5039505;28;20433;-48
2023/09/01 06:53:28;;;;;;;0.40;0.20;;;;;;;17.39;100.00;99931.59;5040449;28;20526;-47
2023/09/01 06:55:56;;;;;;;0.40;0.20;;;;;;;17.64;100.00;99937.16;5037793;28;20543;-48
2023/09/01 06:58:22;;;;;;;0.40;0.20;;;;;;;17.61;100.00;99931.97;5042333;28;20496;-49
2023/09/01 07:00:51;;;;;;;0.40;0.20;;;;;;;17.58;100.00;99934.88;5039466;28;20462;-47
2023/09/01 07:03:19;;;;;;;0.40;0.20;;;;;;;17.64;100.00;99938.97;5041149;28;20462;-49
2023/09/01 07:05:55;;;;;;;0.40;0.20;;;;;;;17.65;100.00;99943.38;5046222;28;20543;-48
2023/09/01 07:08:22;;;;;;;0.40;0.20;;;;;;;17.62;100.00;99943.59;5044428;28;20481;-48
2023/09/01 07:10:48;;;;;;;0.40;0.20;;;;;;;17.74;100.00;99943.72;5038440;28;20546;-48
2023/09/01 07:13:15;;;;;;;0.40;0.20;;;;;;;17.84;100.00;99943.13;5040513;28;20543;-49
2023/09/01 07:15:48;;;;;;;0.40;0.20;;;;;;;17.86;100.00;99935.81;5045888;28;20452;-48
2023/09/01 07:18:14;;;;;;;0.40;0.20;;;;;;;17.95;100.00;99936.06;5045983;28;20490;-52
2023/09/01 07:20:46;;;;;;;0.40;0.20;;;;;;;18.05;100.00;99936.34;5027062;28;20451;-48
2023/09/01 07:23:13;;;;;;;0.40;0.20;;;;;;;18.11;100.00;99941.34;5039306;28;20447;-48
2023/09/01 07:25:40;;;;;;;0.40;0.20;;;;;;;17.96;100.00;99950.41;5044734;28;20488;-48
2023/09/01 07:28:06;;;;;;;0.40;0.20;;;;;;;18.30;100.00;99947.22;5044318;28;20483;-49
2023/09/01 07:30:33;;;;;;;0.40;0.20;;;;;;;18.14;100.00;99948.34;5040462;28;20928;-47
2023/09/01 07:33:00;;;;;;;0.40;0.20;;;;;;;18.35;100.00;99952.31;5038859;28;20458;-47
2023/09/01 07:35:26;;;;;;;0.40;0.20;;;;;;;18.35;100.00;99957.69;5041859;28;20796;-47
2023/09/01 07:37:53;;;;;;;0.40;0.30;;;;;;;18.36;100.00;99959.41;5045336;28;20506;-47
2023/09/01 07:40:19;;;;;;;0.40;0.20;;;;;;;18.31;100.00;99956.16;5040052;28;20485;-47
2023/09/01 07:42:46;;;;;;;0.40;0.20;;;;;;;18.32;100.00;99958.75;5038565;28;20889;-49
2023/09/01 07:45:12;;;;;;;0.40;0.20;;;;;;;18.61;100.00;99959.50;5044277;28;20454;-51
2023/09/01 07:47:39;;;;;;;0.40;0.20;;;;;;;18.50;100.00;99956.69;5045334;28;21009;-47
2023/09/01 07:50:06;;;;;;;0.40;0.20;;;;;;;18.76;100.00;99962.16;5040432;28;20809;-47
2023/09/01 07:52:33;;;;;;;0.40;0.20;;;;;;;18.96;100.00;99969.78;5038623;28;20462;-47
2023/09/01 07:54:59;;;;;;;0.40;0.20;;;;;;;18.76;100.00;99962.16;5043422;28;20448;-47
2023/09/01 07:57:26;;;;;;;0.40;0.20;;;;;;;18.85;100.00;99966.94;5033678;28;20534;-47
2023/09/01 07:59:52;;;;;;;0.40;0.20;;;;;;;18.97;100.00;99970.63;5043540;28;20538;-48
2023/09/01 08:02:19;;;;;;;0.40;0.20;;;;;;;18.94;100.00;99964.50;5045474;28;20858;-47
2023/09/01 08:04:45;;;;;;;0.40;0.20;;;;;;;19.44;100.00;99965.47;5040979;28;20450;-48
2023/09/01 08:07:12;;;;;;;0.40;0.20;;;;;;;19.23;100.00;99977.78;5038718;28;20570;-48
2023/09/01 08:09:38;;;;;;;0.40;0.20;;;;;;;19.32;100.00;99969.03;5043010;28;20525;-49
2023/09/01 08:12:05;;;;;;;0.40;0.20;;;;;;;19.45;100.00;99971.75;5045136;28;20427;-50
2023/09/01 08:14:31;;;;;;;0.40;0.20;;;;;;;19.76;100.00;99975.88;5041016;28;20439;-49
2023/09/01 08:16:58;;;;;;;0.40;0.20;;;;;;;19.60;100.00;99967.13;5038122;28;20453;-49
2023/09/01 08:19:24;;;;;;;0.40;0.20;;;;;;;19.73;100.00;99970.69;5042419;28;21071;-48
2023/09/01 08:21:51;;;;;;;0.40;0.20;;;;;;;19.69;100.00;99971.88;5044775;28;20860;-48
2023/09/01 08:24:17;;;;;;;0.40;0.20;;;;;;;20.03;100.00;99973.88;5044031;28;20454;-48
2023/09/01 08:26:44;;;;;;;0.40;0.20;;;;;;;19.89;100.00;99981.25;5041717;28;20490;-49
2023/09/01 08:29:10;;;;;;;0.40;0.20;;;;;;;19.70;100.00;99977.16;5046545;28;20453;-49
2023/09/01 08:31:37;;;;;;;0.40;0.20;;;;;;;19.66;100.00;99967.56;5049112;28;21015;-52
2023/09/01 08:34:04;;;;;;;0.40;0.20;;;;;;;19.57;100.00;99979.00;5044407;28;20453;-49
2023/09/01 08:36:30;;;;;;;0.40;0.20;;;;;;;19.65;100.00;99975.78;5038679;28;20428;-52
2023/09/01 08:38:56;;;;;;;0.40;0.20;;;;;;;19.58;100.00;99979.88;5044905;28;20549;-52
2023/09/01 08:41:24;;;;;;;0.40;0.20;;;;;;;19.58;100.00;99975.34;5047094;28;20852;-49
2023/09/01 08:43:53;;;;;;;0.40;0.20;;;;;;;19.66;100.00;99980.19;5045061;28;20425;-49
2023/09/01 08:46:21;;;;;;;0.50;0.30;;;;;;;19.64;100.00;99983.00;5041870;28;20432;-49
2023/09/01 08:48:48;;;;;;;0.40;0.20;;;;;;;19.58;100.00;99975.34;5044794;28;20469;-49
2023/09/01 08:51:14;;;;;;;0.40;0.20;;;;;;;19.57;100.00;99976.31;5048631;28;20936;-48
2023/09/01 08:53:42;;;;;;;0.40;0.20;;;;;;;19.56;100.00;99974.59;5045898;28;20421;-49
2023/09/01 08:56:09;;;;;;;0.40;0.20;;;;;;;19.59;100.00;99973.50;5037466;28;20433;-49
2023/09/01 08:58:36;;;;;;;0.40;0.20;;;;;;;19.71;100.00;99980.72;5045869;28;20529;-49
2023/09/01 09:01:03;;;;;;;0.40;0.20;;;;;;;19.75;100.00;99980.41;5041704;28;20427;-50
2023/09/01 09:03:30;;;;;;;0.40;0.20;;;;;;;19.66;100.00;99977.50;5044501;28;20448;-49
2023/09/01 09:05:56;;;;;;;0.40;0.20;;;;;;;19.61;100.00;99980.53;5048428;28;20458;-50
2023/09/01 09:08:23;;;;;;;0.40;0.20;;;;;;;19.60;100.00;99980.63;5045722;28;20480;-48
2023/09/01 09:10:49;;;;;;;0.40;0.20;;;;;;;19.59;100.00;99973.50;5041517;28;20478;-48
2023/09/01 09:13:27;;;;;;;0.40;0.20;;;;;;;19.67;100.00;99976.53;5043839;28;20451;-49
2023/09/01 09:16:13;;;;;;;0.40;0.20;;;;;;;19.63;100.00;99970.50;5048408;28;20454;-48
2023/09/01 09:18:42;;;;;;;0.40;0.20;;;;;;;19.81;100.00;99969.16;5048096;28;20457;-50
2023/09/01 09:21:23;;;;;;;0.40;0.20;;;;;;;19.95;100.00;99980.78;5044158;28;20479;-50
2023/09/01 09:23:50;;;;;;;0.40;0.20;;;;;;;19.98;100.00;99977.88;5040855;28;20525;-48
2023/09/01 09:26:26;;;;;;;0.40;0.20;;;;;;;20.02;100.00;99974.00;5042406;28;20426;-49
2023/09/01 09:28:54;;;;;;;0.40;0.20;;;;;;;20.06;100.00;99984.44;5047939;28;20455;-49
2023/09/01 09:31:33;;;;;;;0.40;0.20;;;;;;;19.99;100.00;99987.69;5047568;28;20833;-49
2023/09/01 09:34:17;;;;;;;0.40;0.20;;;;;;;20.11;100.00;99982.25;5045536;28;20486;-49
2023/09/01 09:36:46;;;;;;;0.40;0.20;;;;;;;20.20;100.00;99986.13;5037273;28;20549;-49
2023/09/01 09:39:22;;;;;;;0.40;0.20;;;;;;;20.33;100.00;99981.56;5042901;28;20462;-49
2023/09/01 09:41:48;;;;;;;0.40;0.20;;;;;;;20.50;100.00;99984.88;5047618;28;20509;-50
2023/09/01 09:44:41;;;;;;;0.40;0.20;;;;;;;20.47;100.00;99982.41;5047405;28;20464;-49
2023/09/01 09:47:12;;;;;;;0.40;0.20;;;;;;;20.61;100.00;99977.69;5043411;28;21000;-49
2023/09/01 09:49:39;;;;;;;0.40;0.20;;;;;;;20.66;100.00;99985.44;5047679;28;20815;-50
2023/09/01 09:52:09;;;;;;;0.40;0.20;;;;;;;20.70;100.00;99985.13;5045045;28;20453;-50
2023/09/01 09:54:37;;;;;;;0.40;0.20;;;;;;;20.59;100.00;99986.91;5045116;28;20426;-51
2023/09/01 09:57:14;;;;;;;0.40;0.20;;;;;;;20.76;100.00;99983.78;5033966;28;20442;-50
2023/09/01 10:00:08;;;;;;;0.40;0.20;;;;;;;21.20;100.00;99987.63;5047470;28;20548;-50
2023/09/01 10:02:58;;;;;;;0.40;0.20;;;;;;;21.12;100.00;99973.84;5045073;28;20902;-51
2023/09/01 10:05:28;;;;;;;0.40;0.30;;;;;;;21.33;100.00;99974.03;5047550;28;20428;-50
2023/09/01 10:07:57;;;;;;;0.40;0.20;;;;;;;21.25;100.00;99978.22;5046859;28;20482;-50
2023/09/01 10:10:24;;;;;;;0.40;0.20;;;;;;;21.12;100.00;99973.84;5047051;28;20457;-50
2023/09/01 10:12:50;;;;;;;0.40;0.20;;;;;;;21.39;100.00;99968.16;5041332;28;20906;-50
2023/09/01 10:15:17;;;;;;;0.40;0.20;;;;;;;21.23;100.00;99969.31;5040452;28;20509;-50
2023/09/01 10:17:47;;;;;;;0.40;0.20;;;;;;;20.91;100.00;99969.09;5045965;28;20482;-49
2023/09/01 10:20:14;;;;;;;8.87;8.03;;;;;;;21.08;100.00;99972.34;5047230;28;20451;-50
2023/09/01 10:22:40;;;;;;;0.40;0.20;;;;;;;20.93;100.00;99960.88;5033494;28;20433;-50
2023/09/01 10:25:15;;;;;;;0.40;0.20;;;;;;;21.17;100.00;99967.09;5030731;28;20957;-49
2023/09/01 10:28:04;;;;;;;0.40;0.30;;;;;;;20.98;100.00;99962.25;5043696;28;20471;-50
2023/09/01 10:30:36;;;;;;;0.40;0.20;;;;;;;20.89;100.00;99964.81;5047166;28;20426;-51
2023/09/01 10:33:05;;;;;;;0.40;0.20;;;;;;;20.93;100.00;99974.38;5045525;28;20421;-50
2023/09/01 10:35:46;;;;;;;0.40;0.20;;;;;;;20.49;100.00;99973.22;5033395;28;20439;-49
2023/09/01 10:38:21;;;;;;;0.40;0.20;;;;;;;20.49;100.00;99973.22;5047159;28;20556;-49
2023/09/01 10:40:51;;;;;;;0.40;0.20;;;;;;;20.62;100.00;99971.31;5044554;28;20501;-50
2023/09/01 10:43:33;;;;;;;0.40;0.20;;;;;;;20.80;100.00;99970.91;5039968;28;20447;-50
2023/09/01 10:46:11;;;;;;;0.40;0.20;;;;;;;20.61;100.00;99963.34;5038972;28;20941;-51
2023/09/01 10:48:56;;;;;;;0.40;0.20;;;;;;;20.77;100.00;99963.03;5044331;28;20484;-49
2023/09/01 10:51:28;;;;;;;0.40;0.20;;;;;;;20.96;100.00;99966.03;5046410;28;20414;-50
2023/09/01 10:53:56;;;;;;;0.40;0.20;;;;;;;21.17;100.00;99961.69;5045472;28;20867;-49
2023/09/01 10:56:24;;;;;;;0.40;0.20;;;;;;;21.04;100.00;99963.63;5033168;28;20964;-50
2023/09/01 10:58:53;;;;;;;0.40;0.20;;;;;;;21.16;100.00;99970.78;5045505;28;20461;-49
2023/09/01 11:01:28;;;;;;;0.40;0.20;;;;;;;21.38;100.00;99971.81;5039603;28;20447;-51
2023/09/01 11:03:56;;;;;;;0.40;0.20;;;;;;;21.41;100.00;99955.38;5039428;28;20510;-49
2023/09/01 11:06:23;;;;;;;0.40;0.20;;;;;;;21.69;100.00;99959.47;5044822;28;20552;-50
2023/09/01 11:08:59;;;;;;;0.40;0.20;;;;;;;21.57;100.00;99954.03;5045945;28;20983;-49
2023/09/01 11:11:27;;;;;;;0.40;0.20;;;;;;;21.50;100.00;99954.63;5042102;28;20469;-51
2023/09/01 11:13:55;;;;;;;0.40;0.20;;;;;;;21.62;100.00;99950.97;5039348;28;20454;-51
2023/09/01 11:16:21;;;;;;;0.40;0.20;;;;;;;21.67;100.00;99942.50;5042713;28;20448;-50
2023/09/01 11:18:58;;;;;;;0.40;0.20;;;;;;;21.63;100.00;99951.81;5045848;28;20523;-50
2023/09/01 11:21:25;;;;;;;0.40;0.20;;;;;;;21.98;100.00;99949.00;5043915;28;20439;-49
2023/09/01 11:24:03;;;;;;;0.40;0.20;;;;;;;21.93;100.00;99941.25;5038892;28;20450;-50
2023/09/01 11:26:30;;;;;;;0.40;0.20;;;;;;;22.09;100.00;99935.47;5038776;28;20936;-51
2023/09/01 11:28:56;;;;;;;0.40;0.20;;;;;;;22.14;100.00;99936.81;5026433;28;20484;-50
2023/09/01 11:31:23;;;;;;;0.40;0.20;;;;;;;22.26;100.00;99926.81;5039007;28;20427;-52